Time;durP1;ratioP1;P1;durP2;ratioP2;P2;SDS_P1;SDS_P2;PMS_P1;PMS_P2;Temp;Humidity;BMP_temperature;BMP_pressure;BME280_temperature;BME280_humidity;BME280_pressure;Samples;Min_cycle;Max_cycle;Signal;HPM_P1;HPM_P2
2022/06/18 00:00:29;;;;;;;;;;;21.30;82.00;;;;;;5049698;28;20129;-44
2022/06/18 00:02:55;;;;;;;3.28;1.98;;;21.40;82.60;;;;;;5056710;28;20714;-45
2022/06/18 00:05:22;;;;;;;;;;;21.30;82.50;;;;;;5070370;28;20058;-44
2022/06/18 00:07:51;;;;;;;4.57;1.75;;;21.30;82.90;;;;;;5070720;28;19971;-44
2022/06/18 00:10:21;;;;;;;3.78;1.95;;;21.30;82.90;;;;;;5071034;28;20085;-45
2022/06/18 00:15:35;;;;;;;7.00;2.15;;;21.20;83.20;;;;;;5066164;28;20084;-44
2022/06/18 00:18:02;;;;;;;6.65;1.83;;;21.20;83.70;;;;;;5050197;28;20041;-44
2022/06/18 00:20:32;;;;;;;5.75;1.88;;;21.10;83.80;;;;;;5055092;28;20119;-44
2022/06/18 00:23:01;;;;;;;5.18;1.85;;;21.10;84.10;;;;;;5069301;28;20444;-44
2022/06/18 00:25:31;;;;;;;3.67;2.05;;;21.00;84.30;;;;;;5061343;28;20084;-44
2022/06/18 00:27:57;;;;;;;6.68;2.10;;;21.00;84.60;;;;;;5065767;28;20056;-46
2022/06/18 00:30:26;;;;;;;5.15;2.03;;;21.00;84.50;;;;;;5070236;28;20494;-44
2022/06/18 00:32:52;;;;;;;6.25;1.98;;;21.00;84.70;;;;;;5069302;28;20044;-44
2022/06/18 00:35:18;;;;;;;;;;;21.00;84.80;;;;;;5070158;28;20041;-44
2022/06/18 00:37:45;;;;;;;3.88;2.15;;;21.00;86.00;;;;;;5068245;28;19917;-44
2022/06/18 00:40:19;;;;;;;6.35;2.63;;;21.00;85.10;;;;;;5067493;28;22155;-44
2022/06/18 00:42:44;;;;;;;10.25;2.60;;;20.90;86.40;;;;;;5049671;28;20040;-44
2022/06/18 00:45:12;;;;;;;;;;;20.90;86.70;;;;;;5050710;28;20044;-44
2022/06/18 00:48:02;;;;;;;3.95;2.25;;;20.90;88.00;;;;;;5054756;28;19951;-44
2022/06/18 00:50:49;;;;;;;7.43;2.63;;;20.90;86.70;;;;;;5059078;28;20056;-44
2022/06/18 00:53:21;;;;;;;6.43;3.08;;;20.80;88.00;;;;;;5068379;28;20045;-44
2022/06/18 00:55:54;;;;;;;4.53;2.75;;;20.80;87.10;;;;;;5069177;28;20079;-44
2022/06/18 00:58:48;;;;;;;3.75;2.83;;;20.80;88.20;;;;;;5062826;28;20041;-44
2022/06/18 01:01:26;;;;;;;3.67;2.17;;;20.80;88.50;;;;;;5047742;28;20087;-46
2022/06/18 01:03:51;;;;;;;6.05;2.83;;;20.70;89.20;;;;;;5068147;28;20051;-45
2022/06/18 01:06:18;;;;;;;;;;;20.70;89.60;;;;;;5066142;28;20044;-44
2022/06/18 01:08:46;;;;;;;5.75;2.75;;;20.70;90.30;;;;;;5064045;28;20004;-44
2022/06/18 01:11:22;;;;;;;7.15;3.90;;;20.60;89.20;;;;;;5065651;28;20053;-44
2022/06/18 01:13:48;;;;;;;4.68;3.25;;;20.60;89.20;;;;;;5049027;28;20037;-44
2022/06/18 01:16:16;;;;;;;4.85;3.00;;;20.50;89.40;;;;;;5056009;28;20044;-44
2022/06/18 01:18:43;;;;;;;4.18;3.60;;;20.50;89.40;;;;;;5066681;28;20044;-44
2022/06/18 01:21:26;;;;;;;5.60;3.08;;;20.50;90.10;;;;;;5066736;28;20123;-44
2022/06/18 01:24:10;;;;;;;6.45;2.78;;;20.50;90.00;;;;;;5058964;28;20113;-44
2022/06/18 01:26:37;;;;;;;4.70;3.60;;;20.40;90.10;;;;;;5056056;28;20086;-45
2022/06/18 01:29:03;;;;;;;4.25;3.85;;;20.50;90.00;;;;;;5054266;28;20494;-44
2022/06/18 01:31:29;;;;;;;5.53;3.85;;;20.40;90.20;;;;;;5065794;28;20098;-45
2022/06/18 01:33:54;;;;;;;;;;;20.40;90.30;;;;;;5067365;28;20040;-44
2022/06/18 01:36:20;;;;;;;7.10;3.60;;;20.40;90.50;;;;;;5069215;28;19944;-46
2022/06/18 01:38:46;;;;;;;;;;;20.40;90.20;;;;;;5065080;28;20067;-44
2022/06/18 01:44:16;;;;;;;7.00;4.40;;;20.30;90.70;;;;;;5051567;28;20072;-44
2022/06/18 01:46:46;;;;;;;5.28;3.53;;;20.30;90.80;;;;;;5049398;28;20041;-45
2022/06/18 01:49:16;;;;;;;4.72;4.32;;;20.30;91.00;;;;;;5049139;28;20045;-44
2022/06/18 01:51:47;;;;;;;4.82;4.43;;;20.30;90.80;;;;;;5050313;28;20049;-44
2022/06/18 01:54:21;;;;;;;8.18;4.80;;;20.30;91.20;;;;;;5049032;28;20072;-45
2022/06/18 01:56:54;;;;;;;6.57;3.92;;;20.30;91.10;;;;;;5049565;28;20124;-45
2022/06/18 01:59:27;;;;;;;6.57;4.38;;;20.30;91.10;;;;;;5050546;28;20072;-44
2022/06/18 02:01:54;;;;;;;6.90;4.22;;;20.20;91.60;;;;;;5049237;28;20037;-44
2022/06/18 02:04:21;;;;;;;5.45;4.63;;;20.20;91.90;;;;;;5055442;28;20048;-44
2022/06/18 02:06:49;;;;;;;9.13;5.13;;;20.20;92.10;;;;;;5052897;28;20116;-46
2022/06/18 02:09:36;;;;;;;6.82;4.43;;;20.20;91.80;;;;;;5058117;28;20119;-46
2022/06/18 02:12:04;;;;;;;;;;;20.10;92.00;;;;;;5069090;28;20046;-44
2022/06/18 02:14:32;;;;;;;8.55;5.88;;;20.10;91.90;;;;;;5067938;28;19985;-44
2022/06/18 02:17:03;;;;;;;5.70;4.45;;;20.10;91.60;;;;;;5069023;28;20051;-44
2022/06/18 02:19:28;;;;;;;6.28;4.72;;;20.10;91.90;;;;;;5059931;28;20033;-44
2022/06/18 02:21:56;;;;;;;5.53;4.70;;;20.10;92.60;;;;;;5048720;28;20107;-44
2022/06/18 02:24:22;;;;;;;6.13;4.57;;;20.10;92.40;;;;;;5070693;28;20049;-46
2022/06/18 02:26:48;;;;;;;9.57;5.35;;;20.10;91.90;;;;;;5072249;28;20054;-46
2022/06/18 02:29:26;;;;;;;6.20;4.90;;;20.10;92.20;;;;;;5062282;28;20083;-46
2022/06/18 02:31:53;;;;;;;8.07;4.72;;;20.10;92.00;;;;;;5070486;28;20043;-43
2022/06/18 02:34:28;;;;;;;9.48;4.82;;;20.10;92.20;;;;;;5062249;28;20082;-44
2022/06/18 02:36:55;;;;;;;8.10;5.32;;;20.10;92.20;;;;;;5060771;28;20124;-44
2022/06/18 02:39:36;;;;;;;9.32;5.72;;;20.00;92.10;;;;;;5071262;28;20037;-45
2022/06/18 02:42:05;;;;;;;6.53;5.72;;;20.10;92.70;;;;;;5055824;28;20091;-44
2022/06/18 02:44:32;;;;;;;7.13;5.85;;;20.00;93.00;;;;;;5051628;28;20520;-44
2022/06/18 02:47:01;;;;;;;7.82;5.68;;;20.00;92.50;;;;;;5052068;28;20426;-44
2022/06/18 02:49:27;;;;;;;6.47;5.47;;;20.00;92.50;;;;;;5052162;28;20048;-44
2022/06/18 02:51:53;;;;;;;10.57;5.15;;;20.00;92.90;;;;;;5052883;28;20536;-44
2022/06/18 02:54:19;;;;;;;7.57;5.38;;;20.00;93.00;;;;;;5051365;28;20049;-44
2022/06/18 02:56:46;;;;;;;;;;;20.00;92.90;;;;;;5052351;28;20087;-45
2022/06/18 02:59:12;;;;;;;9.57;6.28;;;20.00;93.30;;;;;;5068487;28;19920;-44
2022/06/18 03:01:37;;;;;;;8.45;5.93;;;20.00;93.50;;;;;;5058232;28;20090;-44
2022/06/18 03:04:03;;;;;;;;;;;20.00;93.70;;;;;;5051717;28;20552;-44
2022/06/18 03:06:31;;;;;;;6.30;5.63;;;19.90;93.60;;;;;;5051268;28;19961;-44
2022/06/18 03:08:57;;;;;;;10.55;6.20;;;19.90;93.20;;;;;;5066109;28;20060;-44
2022/06/18 03:14:11;;;;;;;7.65;5.50;;;19.90;94.10;;;;;;5051119;28;20041;-45
2022/06/18 03:16:37;;;;;;;9.13;6.13;;;19.90;93.70;;;;;;5050844;28;20044;-45
2022/06/18 03:19:04;;;;;;;6.93;5.72;;;19.80;93.90;;;;;;5083683;28;20090;-44
2022/06/18 03:21:44;;;;;;;8.63;5.50;;;19.80;93.80;;;;;;5052566;28;20075;-44
2022/06/18 03:24:10;;;;;;;10.77;5.57;;;19.90;94.30;;;;;;5051074;28;20056;-44
2022/06/18 03:26:36;;;;;;;10.20;5.00;;;19.80;94.30;;;;;;5070566;28;20032;-44
2022/06/18 03:29:03;;;;;;;9.35;6.00;;;19.80;94.60;;;;;;5055435;28;20494;-43
2022/06/18 03:31:29;;;;;;;9.98;6.53;;;19.80;94.50;;;;;;5051110;28;20036;-44
2022/06/18 03:33:55;;;;;;;7.35;5.80;;;19.80;94.90;;;;;;5070725;28;20048;-44
2022/06/18 03:36:21;;;;;;;;;;;19.80;95.00;;;;;;5071721;28;20048;-44
2022/06/18 03:38:46;;;;;;;7.60;6.10;;;19.80;95.60;;;;;;5069601;28;19916;-44
2022/06/18 03:41:13;;;;;;;6.75;5.03;;;19.80;95.20;;;;;;5053271;28;20132;-44
2022/06/18 03:43:39;;;;;;;8.55;6.38;;;19.70;95.40;;;;;;5051385;28;20037;-43
2022/06/18 03:46:08;;;;;;;13.50;5.93;;;19.70;95.40;;;;;;5051708;28;20040;-44
2022/06/18 03:48:55;;;;;;;6.20;5.60;;;19.70;95.40;;;;;;5051241;28;20048;-44
2022/06/18 03:51:21;;;;;;;9.70;6.20;;;19.70;95.80;;;;;;5055821;28;20044;-44
2022/06/18 03:53:47;;;;;;;7.93;5.63;;;19.60;95.70;;;;;;5057081;28;20120;-44
2022/06/18 03:56:16;;;;;;;7.32;5.60;;;19.60;96.00;;;;;;5050816;28;20127;-44
2022/06/18 03:58:43;;;;;;;9.30;5.97;;;19.60;95.80;;;;;;5050226;28;20041;-44
2022/06/18 04:01:10;;;;;;;9.57;6.35;;;19.60;96.10;;;;;;5050715;28;20064;-45
2022/06/18 04:03:35;;;;;;;9.85;6.10;;;19.60;96.20;;;;;;5059020;28;20032;-44
2022/06/18 04:06:01;;;;;;;12.10;6.45;;;19.60;96.40;;;;;;5070072;28;20055;-44
2022/06/18 04:08:27;;;;;;;6.30;5.70;;;19.60;96.70;;;;;;5071000;28;20081;-44
2022/06/18 04:10:52;;;;;;;6.85;6.13;;;19.60;96.80;;;;;;5070792;28;20375;-43
2022/06/18 04:13:18;;;;;;;7.55;6.72;;;19.60;96.80;;;;;;5065195;28;20044;-44
2022/06/18 04:15:43;;;;;;;;;;;19.60;96.90;;;;;;5050740;28;20498;-45
2022/06/18 04:18:16;;;;;;;8.48;6.32;;;19.60;97.30;;;;;;5067966;28;19917;-45
2022/06/18 04:20:42;;;;;;;14.32;7.95;;;19.60;97.10;;;;;;5070215;28;20036;-44
2022/06/18 04:23:10;;;;;;;7.82;6.88;;;19.60;97.00;;;;;;5067738;28;20444;-44
2022/06/18 04:25:36;;;;;;;10.00;7.13;;;19.60;97.20;;;;;;5059667;28;20098;-44
2022/06/18 04:28:01;;;;;;;8.13;7.40;;;19.60;97.10;;;;;;5048544;28;20040;-44
2022/06/18 04:30:30;;;;;;;8.63;7.72;;;19.60;96.90;;;;;;5050209;28;20040;-44
2022/06/18 04:32:56;;;;;;;14.13;8.38;;;19.60;97.30;;;;;;5049453;28;20397;-44
2022/06/18 04:35:22;;;;;;;11.77;8.85;;;19.60;97.20;;;;;;5069493;28;20109;-44
2022/06/18 04:37:48;;;;;;;13.30;8.50;;;19.60;97.20;;;;;;5069938;28;20440;-44
2022/06/18 04:40:31;;;;;;;14.85;8.57;;;19.60;97.40;;;;;;5051242;28;20056;-45
2022/06/18 04:43:01;;;;;;;9.32;8.30;;;19.60;97.90;;;;;;5049168;28;20040;-44
2022/06/18 04:45:27;;;;;;;10.90;8.98;;;19.60;98.10;;;;;;5050463;28;20041;-46
2022/06/18 04:47:53;;;;;;;13.05;9.48;;;19.60;98.30;;;;;;5069404;28;20123;-45
2022/06/18 04:50:21;;;;;;;11.77;9.65;;;19.60;98.30;;;;;;5068332;28;20120;-44
2022/06/18 04:52:47;;;;;;;16.27;9.75;;;19.70;98.20;;;;;;5066084;28;20047;-44
2022/06/18 04:55:13;;;;;;;12.95;9.57;;;19.70;98.20;;;;;;5065493;28;20119;-44
2022/06/18 04:57:38;;;;;;;;;;;19.70;98.20;;;;;;5060661;28;20036;-44
2022/06/18 05:00:07;;;;;;;12.30;9.57;;;19.70;98.60;;;;;;5065531;28;20404;-45
2022/06/18 05:02:34;;;;;;;10.82;9.52;;;19.70;98.40;;;;;;5056590;28;20068;-44
2022/06/18 05:05:00;;;;;;;14.05;8.43;;;19.70;98.70;;;;;;5068140;28;20040;-44
2022/06/18 05:07:26;;;;;;;10.43;9.35;;;19.70;98.80;;;;;;5069373;28;20481;-44
2022/06/18 05:09:51;;;;;;;13.18;9.27;;;19.70;99.10;;;;;;5069543;28;20080;-44
2022/06/18 05:12:17;;;;;;;17.08;9.70;;;19.70;99.30;;;;;;5069374;28;20079;-44
2022/06/18 05:14:43;;;;;;;;;;;19.80;99.10;;;;;;5069320;28;20127;-44
2022/06/18 05:17:29;;;;;;;10.55;9.30;;;19.80;99.90;;;;;;5067461;28;20431;-46
2022/06/18 05:19:55;;;;;;;19.40;10.90;;;19.80;99.90;;;;;;5054173;28;20076;-44
2022/06/18 05:22:21;;;;;;;;;;;19.90;99.70;;;;;;5052780;28;20072;-45
2022/06/18 05:24:46;;;;;;;13.68;10.48;;;19.90;99.90;;;;;;5069216;28;19916;-44
2022/06/18 05:27:19;;;;;;;;;;;19.90;99.90;;;;;;5060718;28;20055;-44
2022/06/18 05:29:45;;;;;;;11.40;9.90;;;20.00;99.90;;;;;;5049984;28;19927;-45
2022/06/18 05:32:10;;;;;;;16.27;10.57;;;20.00;99.90;;;;;;5055204;28;20115;-44
2022/06/18 05:34:36;;;;;;;;;;;20.10;99.90;;;;;;5054909;28;20052;-44
2022/06/18 05:37:01;;;;;;;13.65;10.15;;;20.10;99.90;;;;;;5066264;28;19924;-44
2022/06/18 05:39:27;;;;;;;;;;;20.10;99.90;;;;;;5058108;28;20040;-44
2022/06/18 05:41:52;;;;;;;14.55;10.50;;;20.10;99.90;;;;;;5060349;28;20055;-44
2022/06/18 05:44:18;;;;;;;;;;;20.20;99.90;;;;;;5049066;28;20414;-44
2022/06/18 05:46:43;;;;;;;16.02;11.95;;;20.20;99.90;;;;;;5054533;28;20380;-46
2022/06/18 05:49:09;;;;;;;;;;;20.20;99.90;;;;;;5050279;28;20082;-44
2022/06/18 05:51:34;;;;;;;24.75;11.60;;;20.20;99.90;;;;;;5050055;28;19920;-43
2022/06/18 05:54:00;;;;;;;18.30;11.93;;;20.30;99.90;;;;;;5049254;28;20037;-44
2022/06/18 05:56:26;;;;;;;;;;;20.30;99.90;;;;;;5049093;28;20037;-44
2022/06/18 05:58:51;;;;;;;19.10;11.30;;;20.30;99.90;;;;;;5064325;28;20300;-44
2022/06/18 06:01:17;;;;;;;18.45;11.00;;;20.30;99.90;;;;;;5052380;28;20409;-44
2022/06/18 06:03:42;;;;;;;;;;;20.40;99.90;;;;;;5063738;28;20376;-44
2022/06/18 06:06:09;;;;;;;18.35;11.35;;;20.40;99.90;;;;;;5062745;28;19990;-45
2022/06/18 06:08:35;;;;;;;20.02;11.65;;;20.40;99.90;;;;;;5056087;28;20055;-44
2022/06/18 06:13:45;;;;;;;15.63;12.18;;;20.60;99.90;;;;;;5052592;28;20048;-45
2022/06/18 06:16:11;;;;;;;;;;;20.60;99.90;;;;;;5058576;28;20497;-46
2022/06/18 06:18:37;;;;;;;16.90;12.68;;;20.70;99.90;;;;;;5070076;28;19916;-44
2022/06/18 06:21:02;;;;;;;;;;;20.70;99.90;;;;;;5066204;28;20120;-44
2022/06/18 06:23:28;;;;;;;23.33;11.90;;;20.70;99.90;;;;;;5061142;28;20361;-44
2022/06/18 06:25:55;;;;;;;;;;;20.70;99.90;;;;;;5073360;28;20469;-44
2022/06/18 06:28:27;;;;;;;16.73;11.05;;;20.80;99.90;;;;;;5070295;28;19927;-44
2022/06/18 06:30:54;;;;;;;23.95;12.25;;;20.90;99.90;;;;;;5057329;28;20037;-44
2022/06/18 06:33:20;;;;;;;17.20;11.85;;;20.90;99.90;;;;;;5051574;28;20497;-44
2022/06/18 06:35:47;;;;;;;20.02;11.30;;;21.00;99.90;;;;;;5052620;28;20041;-45
2022/06/18 06:38:13;;;;;;;19.02;11.73;;;21.00;99.90;;;;;;5052242;28;20106;-44
2022/06/18 06:40:41;;;;;;;21.73;13.38;;;21.10;99.90;;;;;;5056740;28;20106;-45
2022/06/18 06:43:10;;;;;;;16.33;11.77;;;21.20;99.90;;;;;;5051203;28;20033;-44
2022/06/18 06:45:35;;;;;;;17.02;11.23;;;21.20;99.90;;;;;;5055173;28;20052;-44
2022/06/18 06:48:01;;;;;;;;;;;21.30;99.90;;;;;;5052529;28;20045;-44
2022/06/18 06:50:29;;;;;;;16.42;11.52;;;21.30;99.90;;;;;;5053204;28;19916;-44
2022/06/18 06:52:55;;;;;;;20.30;11.32;;;21.40;99.90;;;;;;5051114;28;20045;-44
2022/06/18 06:58:20;;;;;;;19.45;10.25;;;21.50;99.90;;;;;;5071480;28;20561;-45
2022/06/18 07:00:47;;;;;;;;;;;21.60;99.90;;;;;;5062231;28;20079;-44
2022/06/18 07:03:15;;;;;;;14.77;11.57;;;21.60;99.90;;;;;;5050107;28;20293;-44
2022/06/18 07:05:41;;;;;;;14.00;11.18;;;21.60;99.90;;;;;;5050640;28;20037;-44
2022/06/18 07:08:07;;;;;;;;;;;21.70;99.90;;;;;;5062007;28;20143;-45
2022/06/18 07:10:33;;;;;;;21.60;10.88;;;21.70;99.90;;;;;;5070940;28;19999;-44
2022/06/18 07:12:58;;;;;;;14.32;10.07;;;21.80;99.90;;;;;;5070186;28;20044;-45
2022/06/18 07:15:24;;;;;;;;;;;21.80;99.90;;;;;;5065632;28;20441;-44
2022/06/18 07:17:49;;;;;;;25.88;13.35;;;21.90;99.90;;;;;;5071438;28;20067;-44
2022/06/18 07:20:18;;;;;;;17.85;11.52;;;21.90;99.90;;;;;;5071756;28;20040;-44
2022/06/18 07:22:45;;;;;;;20.40;11.35;;;22.00;99.90;;;;;;5050699;28;20143;-44
2022/06/18 07:25:12;;;;;;;25.30;11.90;;;22.00;99.90;;;;;;5063779;28;20048;-44
2022/06/18 07:27:39;;;;;;;13.02;10.25;;;22.10;99.90;;;;;;5065912;28;20050;-44
2022/06/18 07:30:08;;;;;;;21.13;11.93;;;22.20;99.90;;;;;;5079683;28;20084;-44
2022/06/18 07:32:35;;;;;;;19.80;11.40;;;22.20;99.90;;;;;;5073909;28;20409;-44
2022/06/18 07:35:01;;;;;;;20.65;11.68;;;22.30;99.90;;;;;;5060528;28;20041;-44
2022/06/18 07:37:27;;;;;;;;;;;22.30;99.90;;;;;;5056033;28;20044;-44
2022/06/18 07:39:53;;;;;;;20.40;10.73;;;22.30;99.90;;;;;;5058621;28;19923;-45
2022/06/18 07:42:22;;;;;;;26.50;11.40;;;22.40;99.90;;;;;;5064722;28;20028;-46
2022/06/18 07:44:48;;;;;;;13.60;9.43;;;22.40;99.90;;;;;;5070045;28;20113;-46
2022/06/18 07:47:16;;;;;;;13.98;7.38;;;22.50;99.90;;;;;;5071002;28;20052;-44
2022/06/18 07:49:43;;;;;;;18.35;9.80;;;22.50;99.90;;;;;;5071043;28;20072;-45
2022/06/18 07:52:12;;;;;;;19.65;9.88;;;22.60;99.80;;;;;;5063881;28;20037;-45
2022/06/18 07:54:38;;;;;;;21.33;10.25;;;22.70;99.40;;;;;;5051326;28;20121;-44
2022/06/18 07:57:04;;;;;;;;;;;22.60;98.80;;;;;;5062805;28;20080;-46
2022/06/18 07:59:30;;;;;;;15.73;9.07;;;22.70;98.70;;;;;;5063260;28;20332;-45
2022/06/18 08:01:55;;;;;;;;;;;22.80;98.50;;;;;;5068443;28;20524;-45
2022/06/18 08:04:21;;;;;;;14.75;9.40;;;22.80;98.30;;;;;;5050339;28;19917;-44
2022/06/18 08:06:47;;;;;;;22.42;8.93;;;22.80;98.40;;;;;;5054862;28;20551;-44
2022/06/18 08:09:12;;;;;;;;;;;22.80;98.50;;;;;;5060997;28;20044;-44
2022/06/18 08:11:39;;;;;;;19.48;9.57;;;22.90;98.10;;;;;;5062365;28;19967;-44
2022/06/18 08:14:05;;;;;;;17.08;9.95;;;22.90;98.20;;;;;;5049654;28;20506;-44
2022/06/18 08:16:30;;;;;;;;;;;22.90;98.30;;;;;;5057351;28;20037;-44
2022/06/18 08:18:56;;;;;;;17.55;7.78;;;22.90;98.20;;;;;;5062297;28;19916;-44
2022/06/18 08:21:26;;;;;;;15.68;7.18;;;22.90;98.00;;;;;;5056872;28;20044;-45
2022/06/18 08:23:54;;;;;;;16.67;7.05;;;23.00;97.70;;;;;;5069751;28;20036;-46
2022/06/18 08:26:20;;;;;;;13.52;8.27;;;23.00;97.50;;;;;;5063088;28;20036;-45
2022/06/18 08:28:46;;;;;;;14.73;6.57;;;23.10;97.50;;;;;;5067741;28;20067;-45
2022/06/18 08:31:13;;;;;;;;;;;23.10;97.40;;;;;;5070431;28;20078;-45
2022/06/18 08:33:39;;;;;;;12.52;5.47;;;23.10;96.70;;;;;;5068409;28;19917;-44
2022/06/18 08:36:09;;;;;;;14.02;6.63;;;23.20;97.20;;;;;;5068984;28;20048;-44
2022/06/18 08:38:36;;;;;;;16.25;5.68;;;23.20;97.30;;;;;;5060416;28;20044;-44
2022/06/18 08:41:39;;;;;;;12.45;6.25;;;23.30;97.20;;;;;;5056134;28;20025;-44
2022/06/18 08:44:28;;;;;;;11.75;5.70;;;23.40;96.20;;;;;;5049415;28;20444;-44
2022/06/18 08:46:54;;;;;;;13.02;6.75;;;23.50;96.60;;;;;;5049766;28;20698;-45
2022/06/18 08:49:30;;;;;;;10.05;5.38;;;23.50;96.50;;;;;;5056811;28;20040;-47
2022/06/18 08:52:24;;;;;;;15.18;7.28;;;23.60;96.10;;;;;;5056203;28;20533;-44
2022/06/18 08:55:18;;;;;;;8.00;4.25;;;23.70;95.60;;;;;;5057738;28;20064;-45
2022/06/18 08:57:50;;;;;;;11.63;4.13;;;23.70;95.70;;;;;;5055784;28;20040;-44
2022/06/18 09:00:46;;;;;;;13.23;4.13;;;23.70;95.80;;;;;;5066256;28;20078;-45
2022/06/18 09:03:42;;;;;;;5.55;3.05;;;23.80;95.30;;;;;;5049268;28;20044;-45
2022/06/18 09:06:52;;;;;;;9.18;4.72;;;23.80;94.90;;;;;;5055385;28;20441;-45
2022/06/18 09:09:36;;;;;;;11.50;4.28;;;23.80;94.90;;;;;;5053595;28;20036;-44
2022/06/18 09:12:24;;;;;;;8.93;4.07;;;23.80;95.40;;;;;;5062217;28;20486;-45
2022/06/18 09:15:01;;;;;;;17.55;3.35;;;23.90;95.30;;;;;;5053950;28;20111;-46
2022/06/18 09:17:41;;;;;;;8.68;3.75;;;24.00;94.80;;;;;;5049964;28;20052;-46
2022/06/18 09:20:29;;;;;;;8.30;3.63;;;24.00;95.00;;;;;;5054959;28;20420;-46
2022/06/18 09:23:03;;;;;;;8.05;3.25;;;24.10;94.50;;;;;;5063591;28;20040;-44
2022/06/18 09:25:34;;;;;;;7.43;2.72;;;24.10;94.70;;;;;;5047579;28;20049;-44
2022/06/18 09:28:06;;;;;;;10.98;4.03;;;24.20;94.80;;;;;;5058681;28;20037;-45
2022/06/18 09:30:45;;;;;;;10.57;3.75;;;24.20;94.70;;;;;;5049376;28;20136;-46
2022/06/18 09:33:26;;;;;;;10.27;3.22;;;24.20;94.50;;;;;;5051996;28;20037;-45
2022/06/18 09:35:56;;;;;;;14.00;2.72;;;24.30;93.80;;;;;;5060851;28;20497;-44
2022/06/18 09:38:27;;;;;;;8.20;2.22;;;24.30;94.60;;;;;;5065599;28;20059;-44
2022/06/18 09:40:56;;;;;;;5.78;2.67;;;24.40;94.30;;;;;;5058373;28;20040;-45
2022/06/18 09:43:42;;;;;;;4.60;2.47;;;24.50;94.00;;;;;;5059556;28;20040;-44
2022/06/18 09:46:15;;;;;;;13.82;3.50;;;24.50;94.80;;;;;;5059091;28;20040;-45
2022/06/18 09:48:42;;;;;;;4.00;1.92;;;24.60;94.40;;;;;;5062400;28;20470;-44
2022/06/18 09:51:20;;;;;;;10.57;2.78;;;24.60;94.10;;;;;;5059145;28;20048;-45
2022/06/18 09:53:47;;;;;;;8.90;2.72;;;24.70;94.40;;;;;;5062830;28;20029;-45
2022/06/18 09:56:28;;;;;;;4.68;2.28;;;24.70;94.30;;;;;;5066597;28;20047;-44
2022/06/18 09:59:01;;;;;;;8.32;2.80;;;24.80;93.70;;;;;;5064766;28;20097;-45
2022/06/18 10:01:34;;;;;;;8.38;2.97;;;24.90;93.60;;;;;;5066027;28;20040;-44
2022/06/18 10:06:57;;;;;;;7.40;1.83;;;25.00;94.00;;;;;;5062516;28;20087;-45
2022/06/18 10:09:42;;;;;;;5.45;2.92;;;25.10;94.10;;;;;;5054169;28;20048;-47
2022/06/18 10:12:18;;;;;;;5.82;2.28;;;25.10;94.80;;;;;;5059380;28;20410;-45
2022/06/18 10:14:45;;;;;;;5.65;2.20;;;25.20;94.10;;;;;;5061694;28;20173;-45
2022/06/18 10:17:41;;;;;;;7.35;2.28;;;25.10;94.00;;;;;;5054729;28;20640;-44
2022/06/18 10:20:28;;;;;;;12.30;3.00;;;25.10;93.60;;;;;;5059362;28;20060;-45
2022/06/18 10:22:57;;;;;;;;;;;25.20;93.90;;;;;;5059800;28;20363;-45
2022/06/18 10:25:44;;;;;;;9.23;2.78;;;25.20;93.10;;;;;;5064338;28;19968;-45
2022/06/18 10:28:23;;;;;;;8.75;2.40;;;25.20;93.40;;;;;;5058358;28;20574;-45
2022/06/18 10:31:26;;;;;;;6.80;2.15;;;25.30;94.10;;;;;;5058172;28;20052;-46
2022/06/18 10:34:16;;;;;;;4.40;1.92;;;25.30;93.50;;;;;;5054233;28;20410;-45
2022/06/18 10:36:59;;;;;;;6.85;2.20;;;25.40;94.40;;;;;;5053399;28;20505;-44
2022/06/18 10:39:47;;;;;;;5.22;2.08;;;25.40;94.20;;;;;;5058877;28;20046;-44
2022/06/18 10:42:22;;;;;;;5.95;2.80;;;25.40;93.40;;;;;;5055374;28;20094;-44
2022/06/18 10:45:03;;;;;;;4.38;2.00;;;25.40;93.70;;;;;;5056460;28;20087;-45
2022/06/18 10:47:36;;;;;;;6.45;2.85;;;25.30;93.00;;;;;;5050019;28;20043;-45
2022/06/18 10:50:09;;;;;;;7.05;2.13;;;25.40;94.30;;;;;;5051315;28;20119;-45
2022/06/18 10:52:36;;;;;;;9.02;1.95;;;25.40;94.40;;;;;;5057567;28;20041;-45
2022/06/18 10:55:11;;;;;;;7.35;1.88;;;25.50;94.20;;;;;;5051982;28;20486;-44
2022/06/18 10:57:37;;;;;;;8.30;1.90;;;25.50;93.50;;;;;;5058796;28;20036;-44
2022/06/18 11:00:17;;;;;;;10.38;2.45;;;25.50;93.40;;;;;;5063108;28;20042;-45
2022/06/18 11:02:44;;;;;;;9.65;2.17;;;25.50;93.80;;;;;;5064791;28;20075;-44
2022/06/18 11:05:38;;;;;;;8.55;2.45;;;25.60;93.60;;;;;;5055812;28;20045;-44
2022/06/18 11:08:17;;;;;;;4.03;2.33;;;25.60;92.70;;;;;;5052820;28;20437;-44
2022/06/18 11:10:50;;;;;;;8.25;1.95;;;25.60;92.90;;;;;;5053999;28;20501;-44
2022/06/18 11:13:38;;;;;;;7.53;2.13;;;25.60;93.40;;;;;;5058652;28;20039;-45
2022/06/18 11:16:15;;;;;;;4.72;2.13;;;25.70;92.30;;;;;;5054995;28;20041;-44
2022/06/18 11:18:52;;;;;;;5.55;1.88;;;25.70;92.60;;;;;;5062266;28;20040;-46
2022/06/18 11:21:23;;;;;;;3.92;1.83;;;25.70;93.10;;;;;;5056021;28;20041;-47
2022/06/18 11:23:55;;;;;;;6.07;1.58;;;25.80;93.40;;;;;;5062666;28;20032;-45
2022/06/18 11:26:22;;;;;;;5.75;1.52;;;25.80;93.20;;;;;;5059212;28;20413;-45
2022/06/18 11:28:51;;;;;;;6.80;2.20;;;25.80;93.30;;;;;;5058646;28;20432;-44
2022/06/18 11:31:26;;;;;;;8.40;2.28;;;25.90;93.50;;;;;;5063245;28;20040;-45
2022/06/18 11:33:59;;;;;;;2.65;1.38;;;25.90;92.60;;;;;;5058739;28;20036;-45
2022/06/18 11:36:53;;;;;;;10.43;1.77;;;26.00;92.90;;;;;;5067473;28;20835;-46
2022/06/18 11:39:53;;;;;;;6.25;1.67;;;26.00;93.10;;;;;;5053629;28;20391;-44
2022/06/18 11:42:47;;;;;;;8.88;1.83;;;26.10;92.80;;;;;;5047637;28;20045;-44
2022/06/18 11:45:16;;;;;;;6.65;2.10;;;26.00;92.70;;;;;;5049507;28;20420;-45
2022/06/18 11:47:51;;;;;;;8.32;2.38;;;26.00;91.80;;;;;;5058549;28;20068;-44
2022/06/18 11:50:24;;;;;;;7.18;1.90;;;26.10;91.50;;;;;;5054013;28;20037;-45
2022/06/18 11:53:08;;;;;;;7.35;1.90;;;26.10;92.60;;;;;;5053763;28;20056;-45
2022/06/18 11:55:37;;;;;;;4.95;1.52;;;26.20;92.20;;;;;;5051237;28;20041;-45
2022/06/18 11:58:09;;;;;;;12.77;3.03;;;26.20;91.90;;;;;;5050080;28;20075;-45
2022/06/18 12:00:56;;;;;;;7.18;1.95;;;26.30;91.90;;;;;;5062799;28;20553;-45
2022/06/18 12:03:45;;;;;;;;;;;26.30;91.90;;;;;;5053760;28;20055;-45
2022/06/18 12:06:36;;;;;;;10.02;2.22;;;26.30;91.60;;;;;;5054290;28;19916;-45
2022/06/18 12:09:02;;;;;;;5.88;1.85;;;26.40;92.20;;;;;;5061095;28;20065;-45
2022/06/18 12:11:44;;;;;;;5.82;1.73;;;26.40;92.40;;;;;;5052994;28;20106;-45
2022/06/18 12:14:50;;;;;;;7.00;2.28;;;26.40;92.50;;;;;;5053516;28;20488;-45
2022/06/18 12:17:35;;;;;;;6.50;1.98;;;26.40;92.30;;;;;;5059526;28;20057;-45
2022/06/18 12:20:29;;;;;;;11.13;2.47;;;26.40;92.50;;;;;;5053176;28;20033;-45
2022/06/18 12:23:03;;;;;;;4.65;1.75;;;26.40;91.70;;;;;;5062695;28;20036;-45
2022/06/18 12:25:42;;;;;;;9.93;2.03;;;26.50;91.80;;;;;;5060135;28;20076;-46
2022/06/18 12:28:40;;;;;;;9.77;2.53;;;26.50;92.10;;;;;;5064283;28;20397;-45
2022/06/18 12:31:17;;;;;;;8.43;2.40;;;26.50;91.30;;;;;;5059905;28;20036;-46
2022/06/18 12:34:23;;;;;;;7.88;2.10;;;26.60;91.70;;;;;;5054013;28;20654;-45
2022/06/18 12:36:49;;;;;;;6.85;1.75;;;26.60;91.00;;;;;;5050417;28;20374;-45
2022/06/18 12:39:55;;;;;;;6.05;1.70;;;26.60;91.30;;;;;;5048954;28;20037;-46
2022/06/18 12:42:30;;;;;;;6.13;1.90;;;26.60;91.60;;;;;;5065817;28;20238;-47
2022/06/18 12:45:07;;;;;;;8.25;2.40;;;26.70;92.40;;;;;;5065039;28;20040;-45
2022/06/18 12:47:56;;;;;;;6.68;2.22;;;26.70;91.90;;;;;;5052494;28;20514;-45
2022/06/18 12:50:35;;;;;;;7.45;2.33;;;26.80;91.80;;;;;;5055072;28;20036;-44
2022/06/18 12:53:13;;;;;;;6.82;1.52;;;26.80;91.50;;;;;;5066759;28;20068;-45
2022/06/18 12:56:10;;;;;;;5.40;1.95;;;26.80;91.60;;;;;;5061167;28;20037;-45
2022/06/18 12:58:53;;;;;;;7.50;2.15;;;26.90;91.40;;;;;;5048159;28;20474;-45
2022/06/18 13:01:40;;;;;;;7.47;2.72;;;26.90;91.90;;;;;;5049747;28;20059;-45
2022/06/18 13:04:30;;;;;;;10.13;2.03;;;26.90;91.50;;;;;;5054335;28;20032;-45
2022/06/18 13:07:17;;;;;;;9.13;3.08;;;26.90;92.00;;;;;;5052048;28;20043;-44
2022/06/18 13:09:50;;;;;;;;;;;26.90;91.60;;;;;;5058318;28;20037;-47
2022/06/18 13:12:18;;;;;;;7.00;1.85;;;26.90;90.80;;;;;;5051634;28;20409;-44
2022/06/18 13:15:02;;;;;;;9.77;2.10;;;26.90;91.20;;;;;;5054137;28;20089;-45
2022/06/18 13:17:45;;;;;;;7.55;2.10;;;26.90;90.80;;;;;;5060471;28;20155;-44
2022/06/18 13:20:28;;;;;;;10.77;2.88;;;26.90;90.90;;;;;;5065704;28;20037;-45
2022/06/18 13:22:54;;;;;;;6.93;2.22;;;26.90;90.90;;;;;;5050502;28;20401;-44
2022/06/18 13:28:16;;;;;;;4.60;1.80;;;27.00;91.40;;;;;;5062621;28;20044;-45
2022/06/18 13:31:16;;;;;;;8.50;2.42;;;26.90;91.20;;;;;;5055524;28;20494;-46
2022/06/18 13:34:03;;;;;;;5.95;1.98;;;27.00;91.30;;;;;;5055345;28;20135;-45
2022/06/18 13:37:15;;;;;;;108.40;9.00;;;27.00;91.00;;;;;;5066913;28;20032;-47
2022/06/18 13:39:49;;;;;;;8.95;2.25;;;27.10;91.20;;;;;;4986529;28;20046;-45